Port Canaveral, Florida
Current Conditions -  °F | °C
As of 3:58 PM on Friday 24 Oct 2014 (Local Time) from KXMR Reporting Station
Few Clouds Few Clouds  
Wind Chill: 78°   Ceiling: Unl
Heat Index: 79°   Visibility: 10mi
Dew Point: 58°   Wind: 8mph
Humidity: 51%   Direction: 30°NNE
Pressure: 29.92"   Gusts: NA
Location:  28.3971°N, 80.6086°W
Report Text: KXMR 241958Z AUTO 03007KT 10SM FEW050 25/15 A2992 RMK AO2 SLP135 T02530146
Loading
Personal Weather Stations






























Interactive Weather Map
Tropical Storm Tracking
New forecast layout! Learn more

10-Day Weather Forecast

Advertisements
Track Severe Weather on mobile